sensor_id;sensor_type;location;lat;lon;timestamp;pressure;altitude;pressure_sealevel;temperature;humidity
40918;BME280;26644;50.248;19.032;2023-12-29T00:01:04;98089.31;;;8.00;67.96
40918;BME280;26644;50.248;19.032;2023-12-29T00:04:08;98088.50;;;8.04;68.15
40918;BME280;26644;50.248;19.032;2023-12-29T00:07:13;98079.47;;;8.09;67.88
40918;BME280;26644;50.248;19.032;2023-12-29T00:10:21;98076.19;;;8.07;67.50
40918;BME280;26644;50.248;19.032;2023-12-29T00:13:26;98064.44;;;8.06;67.23
40918;BME280;26644;50.248;19.032;2023-12-29T00:16:31;98062.78;;;8.00;67.35
40918;BME280;26644;50.248;19.032;2023-12-29T00:19:35;98069.06;;;7.95;67.48
40918;BME280;26644;50.248;19.032;2023-12-29T00:22:40;98061.44;;;7.92;67.44
40918;BME280;26644;50.248;19.032;2023-12-29T00:25:47;98040.09;;;7.89;67.35
40918;BME280;26644;50.248;19.032;2023-12-29T00:28:51;98028.88;;;7.81;67.24
40918;BME280;26644;50.248;19.032;2023-12-29T00:31:56;98034.06;;;7.82;67.46
40918;BME280;26644;50.248;19.032;2023-12-29T00:35:01;98040.34;;;7.77;67.07
40918;BME280;26644;50.248;19.032;2023-12-29T00:38:06;98034.63;;;7.79;66.89
40918;BME280;26644;50.248;19.032;2023-12-29T00:41:13;98033.78;;;7.78;67.19
40918;BME280;26644;50.248;19.032;2023-12-29T00:44:18;98024.78;;;7.78;67.11
40918;BME280;26644;50.248;19.032;2023-12-29T00:47:22;98028.59;;;7.77;66.86
40918;BME280;26644;50.248;19.032;2023-12-29T00:50:28;98031.31;;;7.77;66.74
40918;BME280;26644;50.248;19.032;2023-12-29T00:53:32;98032.13;;;7.77;66.86
40918;BME280;26644;50.248;19.032;2023-12-29T00:56:41;98030.53;;;7.76;67.06
40918;BME280;26644;50.248;19.032;2023-12-29T00:59:47;98034.06;;;7.77;66.78
40918;BME280;26644;50.248;19.032;2023-12-29T01:02:52;98021.75;;;7.74;66.85
40918;BME280;26644;50.248;19.032;2023-12-29T01:05:56;98020.94;;;7.74;66.92
40918;BME280;26644;50.248;19.032;2023-12-29T01:09:02;98024.75;;;7.73;67.33
40918;BME280;26644;50.248;19.032;2023-12-29T01:12:09;98013.28;;;7.71;67.46
40918;BME280;26644;50.248;19.032;2023-12-29T01:15:16;98011.38;;;7.71;67.46
40918;BME280;26644;50.248;19.032;2023-12-29T01:18:21;98017.66;;;7.72;67.50
40918;BME280;26644;50.248;19.032;2023-12-29T01:21:26;98009.44;;;7.72;67.68
40918;BME280;26644;50.248;19.032;2023-12-29T01:24:34;97996.63;;;7.67;67.43
40918;BME280;26644;50.248;19.032;2023-12-29T01:27:42;98008.63;;;7.66;67.55
40918;BME280;26644;50.248;19.032;2023-12-29T01:30:46;98002.06;;;7.62;67.65
40918;BME280;26644;50.248;19.032;2023-12-29T01:33:51;98008.34;;;7.57;68.00
40918;BME280;26644;50.248;19.032;2023-12-29T01:36:55;97999.59;;;7.50;68.08
40918;BME280;26644;50.248;19.032;2023-12-29T01:40:00;97994.91;;;7.45;68.83
40918;BME280;26644;50.248;19.032;2023-12-29T01:43:08;97989.72;;;7.39;68.96
40918;BME280;26644;50.248;19.032;2023-12-29T01:46:13;97997.38;;;7.37;68.93
40918;BME280;26644;50.248;19.032;2023-12-29T01:49:18;97999.00;;;7.33;69.26
40918;BME280;26644;50.248;19.032;2023-12-29T01:52:24;97978.75;;;7.28;69.54
40918;BME280;26644;50.248;19.032;2023-12-29T01:55:29;97987.50;;;7.25;69.90
40918;BME280;26644;50.248;19.032;2023-12-29T01:58:38;97976.56;;;7.20;69.61
40918;BME280;26644;50.248;19.032;2023-12-29T02:01:43;97967.84;;;7.18;69.88
40918;BME280;26644;50.248;19.032;2023-12-29T02:04:49;97956.34;;;7.16;69.78
40918;BME280;26644;50.248;19.032;2023-12-29T02:07:53;97953.31;;;7.12;69.70
40918;BME280;26644;50.248;19.032;2023-12-29T02:10:59;97967.81;;;7.13;69.06
40918;BME280;26644;50.248;19.032;2023-12-29T02:14:07;97963.44;;;7.12;69.06
40918;BME280;26644;50.248;19.032;2023-12-29T02:17:20;97960.97;;;7.10;68.88
40918;BME280;26644;50.248;19.032;2023-12-29T02:20:31;97957.41;;;7.10;68.93
40918;BME280;26644;50.248;19.032;2023-12-29T02:23:35;97947.84;;;7.07;68.33
40918;BME280;26644;50.248;19.032;2023-12-29T02:26:49;97945.41;;;7.11;68.25
40918;BME280;26644;50.248;19.032;2023-12-29T02:30:08;97948.13;;;7.11;67.71
40918;BME280;26644;50.248;19.032;2023-12-29T02:33:20;97961.53;;;7.18;67.78
40918;BME280;26644;50.248;19.032;2023-12-29T02:36:26;97950.09;;;7.21;67.23
40918;BME280;26644;50.248;19.032;2023-12-29T02:39:31;97941.63;;;7.22;66.37
40918;BME280;26644;50.248;19.032;2023-12-29T02:42:38;97937.53;;;7.25;66.01
40918;BME280;26644;50.248;19.032;2023-12-29T02:45:48;97934.53;;;7.26;65.22
40918;BME280;26644;50.248;19.032;2023-12-29T02:48:53;97941.09;;;7.31;64.58
40918;BME280;26644;50.248;19.032;2023-12-29T02:51:58;97939.19;;;7.36;64.51
40918;BME280;26644;50.248;19.032;2023-12-29T02:55:03;97933.22;;;7.39;63.92
40918;BME280;26644;50.248;19.032;2023-12-29T02:58:11;97930.19;;;7.41;63.77
40918;BME280;26644;50.248;19.032;2023-12-29T03:01:15;97937.56;;;7.45;63.56
40918;BME280;26644;50.248;19.032;2023-12-29T03:04:20;97921.44;;;7.44;63.36
40918;BME280;26644;50.248;19.032;2023-12-29T03:07:24;97920.38;;;7.45;63.35
40918;BME280;26644;50.248;19.032;2023-12-29T03:10:29;97927.47;;;7.46;62.77
40918;BME280;26644;50.248;19.032;2023-12-29T03:13:36;97916.78;;;7.44;62.67
40918;BME280;26644;50.248;19.032;2023-12-29T03:16:41;97906.44;;;7.47;62.61
40918;BME280;26644;50.248;19.032;2023-12-29T03:19:46;97907.25;;;7.47;62.62
40918;BME280;26644;50.248;19.032;2023-12-29T03:22:51;97908.88;;;7.48;62.67
40918;BME280;26644;50.248;19.032;2023-12-29T03:25:56;97914.34;;;7.48;62.43
40918;BME280;26644;50.248;19.032;2023-12-29T03:29:04;97903.69;;;7.47;62.58
40918;BME280;26644;50.248;19.032;2023-12-29T03:32:08;97913.81;;;7.46;62.41
40918;BME280;26644;50.248;19.032;2023-12-29T03:35:14;97907.50;;;7.40;62.28
40918;BME280;26644;50.248;19.032;2023-12-29T03:38:18;97912.72;;;7.37;62.28
40918;BME280;26644;50.248;19.032;2023-12-29T03:41:23;97903.44;;;7.33;62.04
40918;BME280;26644;50.248;19.032;2023-12-29T03:44:30;97900.94;;;7.31;61.97
40918;BME280;26644;50.248;19.032;2023-12-29T03:47:36;97890.28;;;7.24;61.78
40918;BME280;26644;50.248;19.032;2023-12-29T03:50:40;97895.50;;;7.21;61.71
40918;BME280;26644;50.248;19.032;2023-12-29T03:53:45;97896.84;;;7.18;61.52
40918;BME280;26644;50.248;19.032;2023-12-29T03:56:49;97893.56;;;7.16;62.00
40918;BME280;26644;50.248;19.032;2023-12-29T03:59:57;97896.00;;;7.12;62.00
40918;BME280;26644;50.248;19.032;2023-12-29T04:03:02;97894.09;;;7.08;61.90
40918;BME280;26644;50.248;19.032;2023-12-29T04:06:08;97884.22;;;7.02;62.35
40918;BME280;26644;50.248;19.032;2023-12-29T04:09:13;97894.63;;;7.05;62.29
40918;BME280;26644;50.248;19.032;2023-12-29T04:12:18;97884.50;;;7.00;62.42
40918;BME280;26644;50.248;19.032;2023-12-29T04:15:25;97894.31;;;7.01;62.52
40918;BME280;26644;50.248;19.032;2023-12-29T04:18:30;97901.13;;;6.99;62.82
40918;BME280;26644;50.248;19.032;2023-12-29T04:21:34;97904.13;;;6.97;62.69
40918;BME280;26644;50.248;19.032;2023-12-29T04:24:39;97906.88;;;6.97;62.68
40918;BME280;26644;50.248;19.032;2023-12-29T04:27:43;97913.13;;;6.98;62.99
40918;BME280;26644;50.248;19.032;2023-12-29T04:30:51;97893.50;;;6.95;63.09
40918;BME280;26644;50.248;19.032;2023-12-29T04:33:55;97885.56;;;6.94;62.99
40918;BME280;26644;50.248;19.032;2023-12-29T04:37:02;97894.31;;;6.96;63.24
40918;BME280;26644;50.248;19.032;2023-12-29T04:40:07;97876.28;;;6.95;63.02
40918;BME280;26644;50.248;19.032;2023-12-29T04:43:15;97874.66;;;6.99;63.07
40918;BME280;26644;50.248;19.032;2023-12-29T04:46:21;97878.22;;;7.05;62.83
40918;BME280;26644;50.248;19.032;2023-12-29T04:49:26;97883.97;;;7.08;63.03
40918;BME280;26644;50.248;19.032;2023-12-29T04:52:31;97875.81;;;7.14;62.67
40918;BME280;26644;50.248;19.032;2023-12-29T04:55:36;97879.66;;;7.23;62.17
40918;BME280;26644;50.248;19.032;2023-12-29T04:58:40;97875.56;;;7.31;62.06
40918;BME280;26644;50.248;19.032;2023-12-29T05:01:48;97863.00;;;7.40;61.59
40918;BME280;26644;50.248;19.032;2023-12-29T05:04:52;97866.84;;;7.49;61.48
40918;BME280;26644;50.248;19.032;2023-12-29T05:07:57;97858.91;;;7.58;61.45
40918;BME280;26644;50.248;19.032;2023-12-29T05:11:01;97854.25;;;7.64;61.39
40918;BME280;26644;50.248;19.032;2023-12-29T05:14:06;97867.09;;;7.68;61.40
40918;BME280;26644;50.248;19.032;2023-12-29T05:17:13;97886.78;;;7.75;61.49
40918;BME280;26644;50.248;19.032;2023-12-29T05:20:19;97890.59;;;7.80;61.85
40918;BME280;26644;50.248;19.032;2023-12-29T05:23:23;97892.47;;;7.84;61.77
40918;BME280;26644;50.248;19.032;2023-12-29T05:26:28;97884.56;;;7.88;62.09
40918;BME280;26644;50.248;19.032;2023-12-29T05:29:32;97878.00;;;7.89;62.28
40918;BME280;26644;50.248;19.032;2023-12-29T05:32:40;97884.56;;;7.93;62.64
40918;BME280;26644;50.248;19.032;2023-12-29T05:35:44;97887.56;;;7.91;62.78
40918;BME280;26644;50.248;19.032;2023-12-29T05:38:49;97890.59;;;7.90;63.06
40918;BME280;26644;50.248;19.032;2023-12-29T05:41:53;97884.03;;;7.86;62.97
40918;BME280;26644;50.248;19.032;2023-12-29T05:44:58;97883.75;;;7.87;63.38
40918;BME280;26644;50.248;19.032;2023-12-29T05:48:06;97884.03;;;7.86;63.97
40918;BME280;26644;50.248;19.032;2023-12-29T05:51:13;97873.09;;;7.86;63.92
40918;BME280;26644;50.248;19.032;2023-12-29T05:54:17;97881.84;;;7.88;64.02
40918;BME280;26644;50.248;19.032;2023-12-29T05:57:22;97888.38;;;7.92;63.89
40918;BME280;26644;50.248;19.032;2023-12-29T06:00:26;97887.56;;;7.97;64.36
40918;BME280;26644;50.248;19.032;2023-12-29T06:03:34;97879.63;;;8.00;64.68
40918;BME280;26644;50.248;19.032;2023-12-29T06:06:38;97875.25;;;8.04;64.53
40918;BME280;26644;50.248;19.032;2023-12-29T06:09:46;97873.59;;;8.08;64.98
40918;BME280;26644;50.248;19.032;2023-12-29T06:12:50;97865.94;;;8.10;64.80
40918;BME280;26644;50.248;19.032;2023-12-29T06:15:55;97871.13;;;8.12;64.76
40918;BME280;26644;50.248;19.032;2023-12-29T06:19:02;97864.56;;;8.13;65.24
40918;BME280;26644;50.248;19.032;2023-12-29T06:22:07;97857.44;;;8.12;64.96
40918;BME280;26644;50.248;19.032;2023-12-29T06:25:12;97854.47;;;8.08;64.92
40918;BME280;26644;50.248;19.032;2023-12-29T06:28:17;97846.56;;;8.02;65.04
40918;BME280;26644;50.248;19.032;2023-12-29T06:31:21;97861.59;;;7.99;64.99
40918;BME280;26644;50.248;19.032;2023-12-29T06:34:29;97860.50;;;7.95;65.39
40918;BME280;26644;50.248;19.032;2023-12-29T06:37:33;97858.03;;;7.93;65.34
40918;BME280;26644;50.248;19.032;2023-12-29T06:40:39;97865.44;;;7.93;65.42
40918;BME280;26644;50.248;19.032;2023-12-29T06:43:43;97867.59;;;7.91;65.39
40918;BME280;26644;50.248;19.032;2023-12-29T06:46:48;97834.28;;;7.73;65.31
40918;BME280;26644;50.248;19.032;2023-12-29T06:49:55;97849.88;;;7.83;65.74
40918;BME280;26644;50.248;19.032;2023-12-29T06:53:02;97846.31;;;7.83;66.04
40918;BME280;26644;50.248;19.032;2023-12-29T06:56:06;97851.78;;;7.77;65.70
40918;BME280;26644;50.248;19.032;2023-12-29T06:59:11;97853.97;;;7.75;66.05
40918;BME280;26644;50.248;19.032;2023-12-29T07:02:15;97858.63;;;7.70;65.80
40918;BME280;26644;50.248;19.032;2023-12-29T07:05:23;97861.63;;;7.73;66.13
40918;BME280;26644;50.248;19.032;2023-12-29T07:08:27;97865.19;;;7.74;65.94
40918;BME280;26644;50.248;19.032;2023-12-29T07:11:32;97862.97;;;7.76;65.73
40918;BME280;26644;50.248;19.032;2023-12-29T07:14:36;97869.53;;;7.80;65.54
40918;BME280;26644;50.248;19.032;2023-12-29T07:17:41;97880.47;;;7.85;65.54
40918;BME280;26644;50.248;19.032;2023-12-29T07:20:48;97881.56;;;7.89;65.32
40918;BME280;26644;50.248;19.032;2023-12-29T07:23:53;97885.38;;;7.93;64.94
40918;BME280;26644;50.248;19.032;2023-12-29T07:26:58;97885.66;;;7.97;64.47
40918;BME280;26644;50.248;19.032;2023-12-29T07:30:03;97879.91;;;8.04;64.19
40918;BME280;26644;50.248;19.032;2023-12-29T07:33:08;97890.25;;;8.12;64.31
40918;BME280;26644;50.248;19.032;2023-12-29T07:36:16;97877.13;;;8.19;64.10
40918;BME280;26644;50.248;19.032;2023-12-29T07:39:20;97882.03;;;8.27;63.46
40918;BME280;26644;50.248;19.032;2023-12-29T07:42:25;97875.44;;;8.34;63.00
40918;BME280;26644;50.248;19.032;2023-12-29T07:45:30;97883.09;;;8.42;63.00
40918;BME280;26644;50.248;19.032;2023-12-29T07:48:35;97889.63;;;8.51;62.42
40918;BME280;26644;50.248;19.032;2023-12-29T07:51:46;97872.91;;;8.58;62.36
40918;BME280;26644;50.248;19.032;2023-12-29T07:54:51;97884.63;;;8.69;62.20
40918;BME280;26644;50.248;19.032;2023-12-29T07:57:55;97871.69;;;8.79;62.08
40918;BME280;26644;50.248;19.032;2023-12-29T08:01:00;97885.59;;;8.93;61.69
40918;BME280;26644;50.248;19.032;2023-12-29T08:04:04;97889.44;;;8.98;61.46
40918;BME280;26644;50.248;19.032;2023-12-29T08:07:12;97895.09;;;9.11;60.98
40918;BME280;26644;50.248;19.032;2023-12-29T08:10:16;97875.59;;;9.18;60.60
40918;BME280;26644;50.248;19.032;2023-12-29T08:13:21;97868.47;;;9.22;60.23
40918;BME280;26644;50.248;19.032;2023-12-29T08:16:25;97882.38;;;9.31;60.25
40918;BME280;26644;50.248;19.032;2023-12-29T08:19:30;97884.75;;;9.43;60.25
40918;BME280;26644;50.248;19.032;2023-12-29T08:22:37;97876.94;;;9.60;59.47
40918;BME280;26644;50.248;19.032;2023-12-29T08:25:42;97886.53;;;9.92;58.84
40918;BME280;26644;50.248;19.032;2023-12-29T08:28:47;97906.41;;;10.38;57.88
40918;BME280;26644;50.248;19.032;2023-12-29T08:31:52;97901.63;;;10.73;56.56
40918;BME280;26644;50.248;19.032;2023-12-29T08:34:56;97910.53;;;11.27;55.66
40918;BME280;26644;50.248;19.032;2023-12-29T08:38:04;97926.34;;;11.73;54.13
40918;BME280;26644;50.248;19.032;2023-12-29T08:41:08;97911.97;;;11.76;53.37
40918;BME280;26644;50.248;19.032;2023-12-29T08:44:13;97907.50;;;11.81;53.01
40918;BME280;26644;50.248;19.032;2023-12-29T08:47:17;97914.88;;;11.85;53.11
40918;BME280;26644;50.248;19.032;2023-12-29T08:50:22;97909.94;;;12.01;52.44
40918;BME280;26644;50.248;19.032;2023-12-29T08:53:29;97918.13;;;12.20;51.82
40918;BME280;26644;50.248;19.032;2023-12-29T08:56:37;97907.56;;;12.69;50.60
40918;BME280;26644;50.248;19.032;2023-12-29T08:59:41;97910.41;;;13.06;49.67
40918;BME280;26644;50.248;19.032;2023-12-29T09:02:46;97904.16;;;13.14;49.08
40918;BME280;26644;50.248;19.032;2023-12-29T09:05:50;97910.28;;;13.25;49.35
40918;BME280;26644;50.248;19.032;2023-12-29T09:08:58;97902.59;;;13.36;48.69
40918;BME280;26644;50.248;19.032;2023-12-29T09:12:03;97900.25;;;13.43;48.78
40918;BME280;26644;50.248;19.032;2023-12-29T09:15:09;97905.72;;;13.57;48.05
40918;BME280;26644;50.248;19.032;2023-12-29T09:18:13;97892.03;;;13.52;48.39
40918;BME280;26644;50.248;19.032;2023-12-29T09:21:18;97898.63;;;13.65;47.65
40918;BME280;26644;50.248;19.032;2023-12-29T09:24:25;97898.06;;;13.76;47.87
40918;BME280;26644;50.248;19.032;2023-12-29T09:27:30;97894.91;;;14.15;46.78
40918;BME280;26644;50.248;19.032;2023-12-29T09:30:34;97890.91;;;14.30;46.79
40918;BME280;26644;50.248;19.032;2023-12-29T09:33:39;97882.59;;;14.43;46.32
40918;BME280;26644;50.248;19.032;2023-12-29T09:36:43;97877.06;;;14.43;45.87
40918;BME280;26644;50.248;19.032;2023-12-29T09:39:51;97873.63;;;14.15;46.21
40918;BME280;26644;50.248;19.032;2023-12-29T09:42:56;97868.09;;;13.84;46.73
40918;BME280;26644;50.248;19.032;2023-12-29T09:46:03;97866.00;;;13.44;47.76
40918;BME280;26644;50.248;19.032;2023-12-29T09:49:08;97864.00;;;12.99;48.51
40918;BME280;26644;50.248;19.032;2023-12-29T09:52:16;97866.06;;;12.66;49.68
40918;BME280;26644;50.248;19.032;2023-12-29T09:55:26;97854.03;;;12.34;50.92
40918;BME280;26644;50.248;19.032;2023-12-29T09:58:33;97851.88;;;12.03;51.74
40918;BME280;26644;50.248;19.032;2023-12-29T10:01:41;97863.41;;;11.86;52.31
40918;BME280;26644;50.248;19.032;2023-12-29T10:04:48;97854.09;;;11.68;53.17
40918;BME280;26644;50.248;19.032;2023-12-29T10:07:53;97856.00;;;11.53;53.49
40918;BME280;26644;50.248;19.032;2023-12-29T10:11:07;97861.94;;;11.41;53.85
40918;BME280;26644;50.248;19.032;2023-12-29T10:14:22;97855.81;;;11.31;54.11
40918;BME280;26644;50.248;19.032;2023-12-29T10:17:39;97855.34;;;11.23;54.45
40918;BME280;26644;50.248;19.032;2023-12-29T10:20:56;97846.44;;;11.13;54.49
40918;BME280;26644;50.248;19.032;2023-12-29T10:24:12;97836.34;;;11.08;55.17
40918;BME280;26644;50.248;19.032;2023-12-29T10:27:25;97833.00;;;11.11;55.10
40918;BME280;26644;50.248;19.032;2023-12-29T10:30:30;97832.47;;;11.09;55.12
40918;BME280;26644;50.248;19.032;2023-12-29T10:33:35;97820.47;;;11.05;55.35
40918;BME280;26644;50.248;19.032;2023-12-29T10:36:46;97833.09;;;11.06;55.45
40918;BME280;26644;50.248;19.032;2023-12-29T10:39:55;97829.53;;;11.05;55.58
40918;BME280;26644;50.248;19.032;2023-12-29T10:43:03;97831.97;;;11.07;55.65
40918;BME280;26644;50.248;19.032;2023-12-29T10:46:10;97827.88;;;11.04;55.70
40918;BME280;26644;50.248;19.032;2023-12-29T10:49:17;97831.22;;;11.01;55.55
40918;BME280;26644;50.248;19.032;2023-12-29T10:52:23;97827.97;;;10.99;55.96
40918;BME280;26644;50.248;19.032;2023-12-29T10:55:31;97827.66;;;11.01;55.82
40918;BME280;26644;50.248;19.032;2023-12-29T10:58:38;97816.44;;;10.97;55.64
40918;BME280;26644;50.248;19.032;2023-12-29T11:01:43;97811.78;;;10.98;55.73
40918;BME280;26644;50.248;19.032;2023-12-29T11:04:50;97803.91;;;10.91;56.02
40918;BME280;26644;50.248;19.032;2023-12-29T11:07:55;97808.06;;;10.88;56.14
40918;BME280;26644;50.248;19.032;2023-12-29T11:11:00;97829.28;;;10.83;56.00
40918;BME280;26644;50.248;19.032;2023-12-29T11:14:10;97824.00;;;10.86;56.42
40918;BME280;26644;50.248;19.032;2023-12-29T11:17:15;97818.69;;;10.95;56.58
40918;BME280;26644;50.248;19.032;2023-12-29T11:20:22;97809.84;;;10.98;55.79
40918;BME280;26644;50.248;19.032;2023-12-29T11:23:28;97810.06;;;11.02;56.41
40918;BME280;26644;50.248;19.032;2023-12-29T11:26:34;97812.59;;;10.98;56.00
40918;BME280;26644;50.248;19.032;2023-12-29T11:29:43;97802.72;;;10.97;55.98
40918;BME280;26644;50.248;19.032;2023-12-29T11:32:55;97803.25;;;10.99;56.13
40918;BME280;26644;50.248;19.032;2023-12-29T11:36:10;97797.44;;;11.01;56.16
40918;BME280;26644;50.248;19.032;2023-12-29T11:39:27;97787.88;;;10.98;56.05
40918;BME280;26644;50.248;19.032;2023-12-29T11:42:40;97792.84;;;10.96;55.81
40918;BME280;26644;50.248;19.032;2023-12-29T11:45:51;97808.00;;;10.93;55.89
40918;BME280;26644;50.248;19.032;2023-12-29T11:48:56;97798.63;;;10.94;55.90
40918;BME280;26644;50.248;19.032;2023-12-29T11:52:05;97798.25;;;11.01;55.74
40918;BME280;26644;50.248;19.032;2023-12-29T11:55:10;97800.41;;;11.04;55.83
40918;BME280;26644;50.248;19.032;2023-12-29T11:58:27;97796.75;;;11.09;55.52
40918;BME280;26644;50.248;19.032;2023-12-29T12:01:37;97804.44;;;11.12;55.11
40918;BME280;26644;50.248;19.032;2023-12-29T12:04:45;97808.22;;;11.16;55.40
40918;BME280;26644;50.248;19.032;2023-12-29T12:07:57;97803.97;;;11.24;55.08
40918;BME280;26644;50.248;19.032;2023-12-29T12:14:53;97801.06;;;11.15;55.10
40918;BME280;26644;50.248;19.032;2023-12-29T12:18:03;97794.25;;;11.13;55.34
40918;BME280;26644;50.248;19.032;2023-12-29T12:21:10;97806.13;;;11.08;55.02
40918;BME280;26644;50.248;19.032;2023-12-29T12:24:18;97796.03;;;11.03;55.24
40918;BME280;26644;50.248;19.032;2023-12-29T12:27:23;97796.09;;;10.98;55.45
40918;BME280;26644;50.248;19.032;2023-12-29T12:30:29;97807.41;;;10.97;55.40
40918;BME280;26644;50.248;19.032;2023-12-29T12:33:37;97801.09;;;10.96;55.62
40918;BME280;26644;50.248;19.032;2023-12-29T12:36:48;97792.25;;;10.99;55.73
40918;BME280;26644;50.248;19.032;2023-12-29T12:39:53;97793.91;;;11.00;55.24
40918;BME280;26644;50.248;19.032;2023-12-29T12:42:59;97782.69;;;10.97;55.47
40918;BME280;26644;50.248;19.032;2023-12-29T12:46:09;97785.94;;;10.99;55.88
40918;BME280;26644;50.248;19.032;2023-12-29T12:49:18;97792.25;;;10.99;55.58
40918;BME280;26644;50.248;19.032;2023-12-29T12:52:24;97784.00;;;10.99;55.53
40918;BME280;26644;50.248;19.032;2023-12-29T12:55:35;97780.53;;;10.93;55.11
40918;BME280;26644;50.248;19.032;2023-12-29T12:58:40;97786.09;;;10.88;55.44
40918;BME280;26644;50.248;19.032;2023-12-29T13:01:46;97772.16;;;10.85;55.20
40918;BME280;26644;50.248;19.032;2023-12-29T13:04:54;97770.56;;;10.78;55.51
40918;BME280;26644;50.248;19.032;2023-12-29T13:08:00;97769.53;;;10.74;55.80
40918;BME280;26644;50.248;19.032;2023-12-29T13:11:05;97780.91;;;10.68;55.62
40918;BME280;26644;50.248;19.032;2023-12-29T13:14:19;97788.91;;;10.64;55.91
40918;BME280;26644;50.248;19.032;2023-12-29T13:17:25;97780.97;;;10.63;55.78
40918;BME280;26644;50.248;19.032;2023-12-29T13:20:43;97770.59;;;10.59;55.90
40918;BME280;26644;50.248;19.032;2023-12-29T13:23:48;97764.06;;;10.55;55.91
40918;BME280;26644;50.248;19.032;2023-12-29T13:26:57;97775.56;;;10.52;56.14
40918;BME280;26644;50.248;19.032;2023-12-29T13:30:07;97776.16;;;10.49;56.27
40918;BME280;26644;50.248;19.032;2023-12-29T13:33:19;97772.09;;;10.47;56.06
40918;BME280;26644;50.248;19.032;2023-12-29T13:36:40;97779.28;;;10.42;56.19
40918;BME280;26644;50.248;19.032;2023-12-29T13:39:57;97776.59;;;10.37;56.45
40918;BME280;26644;50.248;19.032;2023-12-29T13:43:08;97781.03;;;10.33;56.32
40918;BME280;26644;50.248;19.032;2023-12-29T13:46:18;97778.66;;;10.26;56.80
40918;BME280;26644;50.248;19.032;2023-12-29T13:49:22;97785.25;;;10.25;56.83
40918;BME280;26644;50.248;19.032;2023-12-29T13:52:31;97777.91;;;10.21;56.69
40918;BME280;26644;50.248;19.032;2023-12-29T13:55:39;97774.63;;;10.19;56.98
40918;BME280;26644;50.248;19.032;2023-12-29T13:58:51;97770.03;;;10.14;57.17
40918;BME280;26644;50.248;19.032;2023-12-29T14:01:58;97779.66;;;10.11;57.32
40918;BME280;26644;50.248;19.032;2023-12-29T14:05:14;97774.53;;;10.05;57.45
40918;BME280;26644;50.248;19.032;2023-12-29T14:08:32;97769.09;;;10.00;57.56
40918;BME280;26644;50.248;19.032;2023-12-29T14:11:47;97790.81;;;9.96;57.98
40918;BME280;26644;50.248;19.032;2023-12-29T14:14:52;97785.66;;;9.89;58.43
40918;BME280;26644;50.248;19.032;2023-12-29T14:17:57;97802.41;;;9.88;58.27
40918;BME280;26644;50.248;19.032;2023-12-29T14:21:02;97789.56;;;9.83;58.75
40918;BME280;26644;50.248;19.032;2023-12-29T14:24:11;97803.28;;;9.83;58.45
40918;BME280;26644;50.248;19.032;2023-12-29T14:27:16;97807.41;;;9.81;58.74
40918;BME280;26644;50.248;19.032;2023-12-29T14:30:21;97816.22;;;9.77;59.07
40918;BME280;26644;50.248;19.032;2023-12-29T14:33:25;97813.22;;;9.74;58.91
40918;BME280;26644;50.248;19.032;2023-12-29T14:36:31;97821.53;;;9.69;59.30
40918;BME280;26644;50.248;19.032;2023-12-29T14:39:38;97826.75;;;9.65;59.15
40918;BME280;26644;50.248;19.032;2023-12-29T14:42:43;97833.94;;;9.61;59.50
40918;BME280;26644;50.248;19.032;2023-12-29T14:45:47;97838.06;;;9.58;59.50
40918;BME280;26644;50.248;19.032;2023-12-29T14:48:53;97843.53;;;9.58;59.40
40918;BME280;26644;50.248;19.032;2023-12-29T14:52:00;97850.13;;;9.57;59.43
40918;BME280;26644;50.248;19.032;2023-12-29T14:55:08;97843.28;;;9.55;59.82
40918;BME280;26644;50.248;19.032;2023-12-29T14:58:12;97834.31;;;9.49;59.78
40918;BME280;26644;50.248;19.032;2023-12-29T15:01:17;97835.16;;;9.44;60.25
40918;BME280;26644;50.248;19.032;2023-12-29T15:04:22;97831.09;;;9.37;60.53
40918;BME280;26644;50.248;19.032;2023-12-29T15:07:26;97817.47;;;9.32;60.62
40918;BME280;26644;50.248;19.032;2023-12-29T15:10:34;97809.28;;;9.26;60.64
40918;BME280;26644;50.248;19.032;2023-12-29T15:13:40;97813.69;;;9.22;61.06
40918;BME280;26644;50.248;19.032;2023-12-29T15:16:45;97817.84;;;9.20;60.92
40918;BME280;26644;50.248;19.032;2023-12-29T15:19:51;97810.16;;;9.17;61.45
40918;BME280;26644;50.248;19.032;2023-12-29T15:22:55;97807.72;;;9.15;61.09
40918;BME280;26644;50.248;19.032;2023-12-29T15:26:05;97797.06;;;9.14;61.38
40918;BME280;26644;50.248;19.032;2023-12-29T15:29:09;97806.38;;;9.13;61.57
40918;BME280;26644;50.248;19.032;2023-12-29T15:32:14;97813.19;;;9.15;61.27
40918;BME280;26644;50.248;19.032;2023-12-29T15:35:18;97807.19;;;9.13;61.25
40918;BME280;26644;50.248;19.032;2023-12-29T15:38:23;97805.28;;;9.14;61.71
40918;BME280;26644;50.248;19.032;2023-12-29T15:41:31;97804.16;;;9.15;61.80
40918;BME280;26644;50.248;19.032;2023-12-29T15:44:36;97810.75;;;9.14;61.49
40918;BME280;26644;50.248;19.032;2023-12-29T15:47:40;97810.19;;;9.11;61.95
40918;BME280;26644;50.248;19.032;2023-12-29T15:50:45;97815.13;;;9.15;61.63
40918;BME280;26644;50.248;19.032;2023-12-29T15:53:49;97812.69;;;9.13;61.86
40918;BME280;26644;50.248;19.032;2023-12-29T15:56:59;97813.78;;;9.12;61.84
40918;BME280;26644;50.248;19.032;2023-12-29T16:00:09;97811.84;;;9.13;61.85
40918;BME280;26644;50.248;19.032;2023-12-29T16:03:15;97817.03;;;9.14;61.58
40918;BME280;26644;50.248;19.032;2023-12-29T16:06:20;97813.47;;;9.14;61.82
40918;BME280;26644;50.248;19.032;2023-12-29T16:09:26;97814.56;;;9.13;61.92
40918;BME280;26644;50.248;19.032;2023-12-29T16:12:32;97809.41;;;9.11;62.01
40918;BME280;26644;50.248;19.032;2023-12-29T16:15:37;97809.41;;;9.11;61.81
40918;BME280;26644;50.248;19.032;2023-12-29T16:18:42;97802.28;;;9.10;62.10
40918;BME280;26644;50.248;19.032;2023-12-29T16:21:48;97806.94;;;9.09;61.96
40918;BME280;26644;50.248;19.032;2023-12-29T16:24:52;97802.56;;;9.08;61.97
40918;BME280;26644;50.248;19.032;2023-12-29T16:28:00;97794.09;;;9.05;62.10